createdAt,value
2024-04-12T00:00:50.581Z,10.54
2024-04-12T00:04:54.347Z,10.53
2024-04-12T00:08:56.250Z,10.53
2024-04-12T00:12:58.253Z,10.30
2024-04-12T00:17:00.644Z,10.70
2024-04-12T00:21:03.489Z,10.57
2024-04-12T00:25:06.137Z,10.54
2024-04-12T00:29:09.414Z,10.42
2024-04-12T00:33:11.679Z,10.53
2024-04-12T00:37:17.306Z,10.03
2024-04-12T00:41:24.082Z,10.22
2024-04-12T00:45:40.785Z,10.49
2024-04-12T00:49:52.947Z,10.42
2024-04-12T00:54:00.014Z,10.49
2024-04-12T00:58:02.209Z,10.62
2024-04-12T01:02:09.863Z,10.70
2024-04-12T01:06:12.004Z,11.02
2024-04-12T01:10:13.812Z,11.07
2024-04-12T01:14:15.798Z,10.99
2024-04-12T01:18:18.295Z,10.96
2024-04-12T01:22:20.285Z,10.32
2024-04-12T01:26:24.814Z,10.34
2024-04-12T01:30:26.946Z,10.93
2024-04-12T01:34:31.251Z,10.88
2024-04-12T01:38:38.215Z,10.42
2024-04-12T01:42:44.250Z,10.59
2024-04-12T01:46:49.373Z,10.65
2024-04-12T01:50:52.652Z,10.77
2024-04-12T01:55:06.813Z,10.86
2024-04-12T01:59:08.780Z,10.58
2024-04-12T02:03:11.998Z,10.55
2024-04-12T02:07:15.533Z,10.67
2024-04-12T02:11:24.324Z,10.75
2024-04-12T02:15:29.519Z,11.04
2024-04-12T02:19:31.892Z,10.94
2024-04-12T02:23:34.747Z,10.95
2024-04-12T02:27:36.868Z,10.86
2024-04-12T02:31:38.832Z,11.17
2024-04-12T02:35:42.793Z,10.60
2024-04-12T02:39:44.616Z,10.60
2024-04-12T02:43:53.941Z,10.42
2024-04-12T02:47:56.344Z,10.96
2024-04-12T02:52:01.096Z,10.97
2024-04-12T02:56:13.581Z,11.20
2024-04-12T03:00:24.481Z,11.30
2024-04-12T03:04:26.557Z,11.13
2024-04-12T03:08:33.706Z,11.01
2024-04-12T03:12:37.331Z,10.91
2024-04-12T03:16:41.898Z,10.70
2024-04-12T03:20:44.020Z,10.82
2024-04-12T03:24:45.965Z,10.97
2024-04-12T03:28:47.827Z,11.14
2024-04-12T03:32:49.739Z,10.90
2024-04-12T03:36:51.546Z,10.78
2024-04-12T03:40:59.877Z,10.90
2024-04-12T03:45:13.994Z,10.92
2024-04-12T03:49:16.088Z,10.62
2024-04-12T03:53:17.880Z,10.89
2024-04-12T03:57:20.127Z,10.85
2024-04-12T04:01:22.141Z,10.84
2024-04-12T04:05:27.457Z,10.93
2024-04-12T04:09:29.542Z,11.29
2024-04-12T04:13:31.411Z,10.88
2024-04-12T04:17:34.361Z,10.93
2024-04-12T04:21:39.333Z,10.79
2024-04-12T04:25:41.235Z,10.58
2024-04-12T04:29:46.055Z,10.89
2024-04-12T04:33:48.022Z,10.62
2024-04-12T04:37:53.621Z,10.86
2024-04-12T04:41:55.569Z,10.84
2024-04-12T04:46:00.492Z,10.96
2024-04-12T04:50:02.651Z,11.03
2024-04-12T04:54:04.771Z,10.56
2024-04-12T04:58:09.978Z,10.75
2024-04-12T05:02:11.841Z,10.91
2024-04-12T05:06:13.938Z,10.78
2024-04-12T05:10:16.872Z,10.74
2024-04-12T05:14:37.396Z,10.78
2024-04-12T05:18:39.306Z,10.83
2024-04-12T05:22:43.268Z,11.19
2024-04-12T05:26:46.541Z,10.91
2024-04-12T05:30:52.326Z,10.83
2024-04-12T05:34:54.834Z,10.75
2024-04-12T05:38:59.533Z,11.17
2024-04-12T05:43:01.984Z,10.26
2024-04-12T05:47:08.458Z,10.89
2024-04-12T05:51:10.833Z,10.77
2024-04-12T05:55:15.661Z,10.78
2024-04-12T05:59:17.706Z,10.84
2024-04-12T06:03:19.552Z,11.25
2024-04-12T06:07:21.500Z,11.34
2024-04-12T06:11:23.968Z,11.21
2024-04-12T06:15:29.433Z,11.06
2024-04-12T06:19:38.229Z,11.59
2024-04-12T06:23:40.069Z,11.20
2024-04-12T06:27:43.960Z,11.00
2024-04-12T06:31:47.039Z,11.62
2024-04-12T06:35:50.697Z,11.62
2024-04-12T06:39:56.998Z,11.22
2024-04-12T06:43:58.997Z,11.54
2024-04-12T06:48:04.952Z,11.46
2024-04-12T06:52:13.405Z,11.80
2024-04-12T06:56:17.933Z,11.77
2024-04-12T07:00:21.765Z,11.16
2024-04-12T07:04:23.820Z,12.08
2024-04-12T07:08:28.443Z,12.15
2024-04-12T07:12:32.734Z,12.03
2024-04-12T07:16:37.000Z,11.96
2024-04-12T07:20:41.584Z,11.02
2024-04-12T07:24:43.494Z,10.88
2024-04-12T07:28:45.534Z,10.76
2024-04-12T07:32:47.718Z,10.91
2024-04-12T07:36:49.525Z,10.82
2024-04-12T07:40:54.155Z,10.97
2024-04-12T07:44:57.763Z,11.17
2024-04-12T07:49:00.371Z,11.33
2024-04-12T07:53:11.658Z,11.35
2024-04-12T07:57:16.287Z,11.74
2024-04-12T08:01:19.191Z,11.39
2024-04-12T08:05:26.299Z,11.77
2024-04-12T08:09:46.151Z,12.01
2024-04-12T08:13:51.725Z,11.73
2024-04-12T08:17:56.969Z,11.84
2024-04-12T08:21:58.841Z,11.73
2024-04-12T08:26:11.187Z,11.79
2024-04-12T08:30:21.388Z,12.33
2024-04-12T08:34:25.847Z,12.38
2024-04-12T08:38:27.785Z,12.14
2024-04-12T08:42:33.809Z,12.60
2024-04-12T08:46:36.970Z,12.18
2024-04-12T08:50:41.055Z,12.04
2024-04-12T08:54:44.387Z,12.71
2024-04-12T08:58:53.553Z,12.94
2024-04-12T09:03:05.778Z,12.82
2024-04-12T09:07:13.430Z,12.72
2024-04-12T09:11:15.506Z,12.49
2024-04-12T09:15:28.681Z,13.31
2024-04-12T09:19:30.813Z,13.14
2024-04-12T09:23:35.889Z,13.46
2024-04-12T09:27:45.230Z,13.10
2024-04-12T09:32:06.678Z,12.49
2024-04-12T09:36:15.452Z,12.99
2024-04-12T09:40:25.949Z,12.63
2024-04-12T09:44:28.916Z,12.89
2024-04-12T09:48:50.354Z,13.13
2024-04-12T09:53:10.946Z,13.31
2024-04-12T09:57:32.598Z,13.20
2024-04-12T10:01:56.507Z,12.97
2024-04-12T10:06:17.596Z,13.59
2024-04-12T10:10:39.360Z,13.25
2024-04-12T10:15:00.529Z,13.62
2024-04-12T10:19:29.070Z,13.22
2024-04-12T10:23:49.746Z,13.85
2024-04-12T10:28:11.923Z,13.39
2024-04-12T10:32:33.183Z,13.33
2024-04-12T10:36:54.154Z,13.47
2024-04-12T10:40:59.412Z,12.94
2024-04-12T10:45:03.289Z,13.97
2024-04-12T10:49:06.860Z,14.07
2024-04-12T10:53:08.747Z,13.66
2024-04-12T10:57:13.442Z,13.65
2024-04-12T11:01:17.800Z,13.34
2024-04-12T11:05:19.917Z,13.63
2024-04-12T11:09:31.474Z,13.59
2024-04-12T11:13:37.077Z,13.77
2024-04-12T11:18:00.226Z,13.78
2024-04-12T11:22:20.599Z,14.08
2024-04-12T11:26:41.562Z,13.48
2024-04-12T11:31:03.047Z,13.30
2024-04-12T11:35:06.542Z,13.60
2024-04-12T11:39:26.661Z,14.23
2024-04-12T11:43:28.572Z,13.36
2024-04-12T11:47:30.557Z,13.02
2024-04-12T11:51:34.840Z,13.57
2024-04-12T11:55:36.832Z,13.38
2024-04-12T11:59:38.822Z,13.49
2024-04-12T12:03:40.813Z,13.29
2024-04-12T12:07:46.170Z,13.83
2024-04-12T12:11:50.796Z,13.80
2024-04-12T12:15:53.197Z,14.15
2024-04-12T12:19:55.185Z,13.66
2024-04-12T12:23:57.695Z,13.96
2024-04-12T12:27:59.455Z,13.24
2024-04-12T12:32:02.548Z,13.90
2024-04-12T12:36:07.280Z,13.90
2024-04-12T12:40:14.689Z,13.74
2024-04-12T12:44:24.075Z,13.47
2024-04-12T12:48:29.470Z,13.74
2024-04-12T12:52:33.608Z,13.88
2024-04-12T12:56:36.353Z,14.04
2024-04-12T13:00:41.210Z,13.96
2024-04-12T13:04:49.938Z,13.50
2024-04-12T13:08:51.846Z,13.80
2024-04-12T13:12:53.807Z,14.10
2024-04-12T13:16:55.997Z,13.68
2024-04-12T13:20:58.625Z,14.03
2024-04-12T13:25:00.510Z,13.48
2024-04-12T13:29:02.420Z,13.97
2024-04-12T13:33:04.565Z,13.95
2024-04-12T13:37:09.514Z,13.71
2024-04-12T13:41:11.978Z,13.54
2024-04-12T13:45:32.479Z,13.78
2024-04-12T13:49:53.010Z,14.05
2024-04-12T13:53:54.951Z,13.96
2024-04-12T13:57:56.900Z,14.12
2024-04-12T14:02:00.419Z,13.97
2024-04-12T14:06:02.669Z,13.97
2024-04-12T14:10:07.717Z,13.64
2024-04-12T14:14:10.749Z,13.77
2024-04-12T14:18:12.671Z,13.76
2024-04-12T14:22:14.456Z,13.99
2024-04-12T14:26:16.502Z,13.93
2024-04-12T14:30:22.291Z,14.01
2024-04-12T14:34:25.906Z,13.86
2024-04-12T14:38:30.508Z,13.07
2024-04-12T14:42:33.679Z,13.76
2024-04-12T14:46:39.728Z,13.65
2024-04-12T14:50:42.818Z,13.89
2024-04-12T14:54:44.825Z,13.36
2024-04-12T14:58:46.545Z,13.39
2024-04-12T15:02:48.585Z,13.40
2024-04-12T15:07:09.912Z,13.41
2024-04-12T15:11:30.048Z,13.39
2024-04-12T15:15:51.166Z,13.29
2024-04-12T15:20:11.820Z,13.96
2024-04-12T15:24:32.242Z,13.71
2024-04-12T15:28:52.647Z,13.91
2024-04-12T15:33:13.514Z,13.86
2024-04-12T15:37:34.437Z,14.09
2024-04-12T15:41:54.841Z,14.42
2024-04-12T15:46:15.378Z,14.55
2024-04-12T15:50:26.210Z,14.81
2024-04-12T15:54:28.043Z,14.11
2024-04-12T15:58:48.995Z,14.90
2024-04-12T16:03:12.573Z,15.15
2024-04-12T16:07:33.687Z,14.67
2024-04-12T16:11:35.506Z,14.44
2024-04-12T16:15:37.339Z,14.79
2024-04-12T16:19:41.239Z,14.60
2024-04-12T16:23:42.992Z,14.41
2024-04-12T16:27:44.958Z,14.94
2024-04-12T16:31:47.107Z,14.93
2024-04-12T16:35:49.111Z,14.65
2024-04-12T16:39:52.310Z,15.09
2024-04-12T16:43:57.249Z,14.89
2024-04-12T16:48:01.672Z,14.17
2024-04-12T16:52:04.004Z,14.67
2024-04-12T16:56:05.995Z,14.48
2024-04-12T17:00:08.398Z,14.71
2024-04-12T17:04:11.316Z,14.46
2024-04-12T17:08:13.714Z,14.43
2024-04-12T17:12:15.494Z,14.84
2024-04-12T17:16:18.350Z,14.54
2024-04-12T17:20:20.730Z,14.04
2024-04-12T17:24:23.549Z,14.54
2024-04-12T17:28:25.401Z,14.31
2024-04-12T17:32:35.195Z,12.28
2024-04-12T17:36:37.188Z,11.91
2024-04-12T17:40:39.047Z,11.80
2024-04-12T17:44:41.679Z,11.92
2024-04-12T17:48:43.665Z,11.65
2024-04-12T17:52:46.360Z,11.49
2024-04-12T17:56:48.243Z,11.19
2024-04-12T18:01:03.091Z,11.25
2024-04-12T18:05:07.103Z,11.69
2024-04-12T18:09:10.412Z,11.53
2024-04-12T18:13:12.245Z,11.49
2024-04-12T18:17:14.367Z,11.39
2024-04-12T18:21:17.540Z,11.67
2024-04-12T18:25:19.925Z,11.45
2024-04-12T18:29:21.898Z,11.58
2024-04-12T18:33:24.138Z,11.57
2024-04-12T18:37:44.634Z,11.51
2024-04-12T18:42:05.636Z,11.05
2024-04-12T18:46:07.838Z,11.15
2024-04-12T18:50:11.002Z,11.08
2024-04-12T18:54:12.802Z,10.97
2024-04-12T18:58:15.294Z,10.69
2024-04-12T19:02:17.179Z,10.78
2024-04-12T19:06:19.687Z,10.94
2024-04-12T19:10:21.637Z,10.82
2024-04-12T19:14:25.455Z,10.63
2024-04-12T19:18:30.451Z,10.81
2024-04-12T19:22:32.500Z,10.47
2024-04-12T19:26:37.387Z,10.82
2024-04-12T19:30:44.350Z,10.50
2024-04-12T19:34:46.500Z,10.77
2024-04-12T19:38:48.328Z,10.79
2024-04-12T19:42:50.099Z,10.81
2024-04-12T19:46:51.893Z,10.48
2024-04-12T19:50:55.884Z,10.52
2024-04-12T19:54:58.494Z,10.18
2024-04-12T19:59:00.396Z,10.78
2024-04-12T20:03:03.033Z,10.94
2024-04-12T20:07:05.582Z,10.59
2024-04-12T20:11:08.299Z,10.85
2024-04-12T20:15:14.640Z,10.79
2024-04-12T20:19:16.834Z,10.47
2024-04-12T20:23:18.644Z,10.10
2024-04-12T20:27:20.793Z,10.18
2024-04-12T20:31:37.503Z,10.16
2024-04-12T20:35:49.000Z,10.12
2024-04-12T20:39:50.899Z,9.79
2024-04-12T20:43:52.625Z,10.02
2024-04-12T20:47:54.570Z,9.59
2024-04-12T20:51:57.046Z,9.88
2024-04-12T20:56:00.630Z,10.22
2024-04-12T21:00:02.522Z,10.33
2024-04-12T21:04:04.550Z,10.15
2024-04-12T21:08:07.073Z,9.72
2024-04-12T21:12:10.119Z,9.91
2024-04-12T21:16:12.017Z,9.40
2024-04-12T21:20:16.494Z,9.47
2024-04-12T21:24:18.518Z,9.76
2024-04-12T21:28:20.947Z,9.63
2024-04-12T21:32:23.558Z,9.66
2024-04-12T21:36:26.534Z,9.76
2024-04-12T21:40:28.457Z,9.67
2024-04-12T21:44:31.093Z,9.73
2024-04-12T21:48:33.357Z,9.42
2024-04-12T21:52:35.110Z,9.15
2024-04-12T21:56:36.777Z,9.24
2024-04-12T22:00:39.725Z,9.46
2024-04-12T22:04:41.721Z,9.32
2024-04-12T22:08:44.457Z,9.42
2024-04-12T22:12:46.400Z,9.74
2024-04-12T22:16:48.194Z,9.17
2024-04-12T22:21:02.350Z,9.30
2024-04-12T22:25:06.049Z,9.35
2024-04-12T22:29:07.979Z,9.40
2024-04-12T22:33:10.014Z,9.21
2024-04-12T22:37:13.981Z,9.45
2024-04-12T22:41:15.881Z,8.74
2024-04-12T22:45:17.632Z,9.01
2024-04-12T22:49:20.738Z,9.14
2024-04-12T22:53:22.740Z,8.86
2024-04-12T22:57:24.661Z,9.55
2024-04-12T23:01:29.551Z,8.93
2024-04-12T23:05:33.554Z,8.65
2024-04-12T23:09:35.747Z,9.20
2024-04-12T23:13:38.633Z,8.76
2024-04-12T23:17:40.900Z,8.50
2024-04-12T23:21:42.808Z,8.82
2024-04-12T23:25:44.559Z,8.37
2024-04-12T23:29:46.488Z,8.93
2024-04-12T23:33:49.288Z,9.31
2024-04-12T23:37:51.165Z,8.71
2024-04-12T23:41:52.930Z,8.82
2024-04-12T23:45:54.758Z,9.07
2024-04-12T23:49:59.328Z,9.15
2024-04-12T23:54:03.448Z,9.06
2024-04-12T23:58:05.896Z,8.43
